createdAt,value
2018-05-16T00:00:04.811Z,4.85
2018-05-16T00:02:33.090Z,4.93
2018-05-16T00:05:01.359Z,4.90
2018-05-16T00:07:29.644Z,4.93
2018-05-16T00:09:57.902Z,4.70
2018-05-16T00:12:25.430Z,5.10
2018-05-16T00:14:52.926Z,5.43
2018-05-16T00:17:21.231Z,5.43
2018-05-16T00:19:48.782Z,5.60
2018-05-16T00:22:16.313Z,5.37
2018-05-16T00:24:43.804Z,5.20
2018-05-16T00:27:11.367Z,5.35
2018-05-16T00:29:38.882Z,5.10
2018-05-16T00:32:07.883Z,5.07
2018-05-16T00:34:35.402Z,5.20
2018-05-16T00:37:02.925Z,5.50
2018-05-16T00:39:30.434Z,5.10
2018-05-16T00:41:57.947Z,5.30
2018-05-16T00:44:25.495Z,5.70
2018-05-16T00:46:53.762Z,5.22
2018-05-16T00:49:22.051Z,5.60
2018-05-16T00:51:49.547Z,5.50
2018-05-16T00:54:17.062Z,5.03
2018-05-16T00:56:45.321Z,5.60
2018-05-16T00:59:12.835Z,5.43
2018-05-16T01:01:40.322Z,5.90
2018-05-16T01:04:07.848Z,5.35
2018-05-16T01:06:35.340Z,5.60
2018-05-16T01:09:02.871Z,5.40
2018-05-16T01:11:30.405Z,5.63
2018-05-16T01:13:57.907Z,5.62
2018-05-16T01:16:25.435Z,5.68
2018-05-16T01:18:52.918Z,5.82
2018-05-16T01:21:20.408Z,6.00
2018-05-16T01:23:48.703Z,6.37
2018-05-16T01:26:16.219Z,6.50
2018-05-16T01:28:43.736Z,6.60
2018-05-16T01:31:11.249Z,5.93
2018-05-16T01:33:38.767Z,6.50
2018-05-16T01:36:06.299Z,6.78
2018-05-16T01:38:33.805Z,6.97
2018-05-16T01:41:01.292Z,6.65
2018-05-16T01:43:29.592Z,6.73
2018-05-16T01:45:57.078Z,6.60
2018-05-16T01:48:24.605Z,6.30
2018-05-16T01:50:52.124Z,6.28
2018-05-16T01:53:19.615Z,6.60
2018-05-16T01:55:47.126Z,6.33
2018-05-16T01:58:14.635Z,7.75
2018-05-16T02:00:42.168Z,6.95
2018-05-16T02:03:10.440Z,7.00
2018-05-16T02:05:38.715Z,7.43
2018-05-16T02:08:06.296Z,6.68
2018-05-16T02:10:33.820Z,6.60
2018-05-16T02:13:01.310Z,6.93
2018-05-16T02:15:29.607Z,7.68
2018-05-16T02:17:57.103Z,7.10
2018-05-16T02:20:24.612Z,6.60
2018-05-16T02:22:52.131Z,6.93
2018-05-16T02:25:19.641Z,7.32
2018-05-16T02:27:47.167Z,7.30
2018-05-16T02:30:15.447Z,7.60
2018-05-16T02:32:43.727Z,7.50
2018-05-16T02:35:12.008Z,7.05
2018-05-16T02:37:40.291Z,7.72
2018-05-16T02:40:07.816Z,7.90
2018-05-16T02:42:35.302Z,7.80
2018-05-16T02:45:02.823Z,7.28
2018-05-16T02:47:30.385Z,7.50
2018-05-16T02:49:57.896Z,7.10
2018-05-16T02:52:25.444Z,7.80
2018-05-16T02:54:52.967Z,7.70
2018-05-16T02:57:20.463Z,7.65
2018-05-16T02:59:47.995Z,7.47
2018-05-16T03:02:16.394Z,7.43
2018-05-16T03:04:43.899Z,7.60
2018-05-16T03:07:11.411Z,7.80
2018-05-16T03:09:38.914Z,7.75
2018-05-16T03:12:06.447Z,7.75
2018-05-16T03:14:33.940Z,8.20
2018-05-16T03:17:01.436Z,7.80
2018-05-16T03:19:28.962Z,8.30
2018-05-16T03:21:56.487Z,7.80
2018-05-16T03:24:23.982Z,8.40
2018-05-16T03:26:51.579Z,8.30
2018-05-16T03:29:19.102Z,8.25
2018-05-16T03:31:46.697Z,8.05
2018-05-16T03:34:14.255Z,8.40
2018-05-16T03:36:41.778Z,7.80
2018-05-16T03:39:09.267Z,8.02
2018-05-16T03:41:37.551Z,8.00
2018-05-16T03:44:05.052Z,8.33
2018-05-16T03:46:32.572Z,7.50
2018-05-16T03:49:00.107Z,8.10
2018-05-16T03:51:28.363Z,8.05
2018-05-16T03:53:57.398Z,8.63
2018-05-16T03:56:24.887Z,8.65
2018-05-16T04:02:04.871Z,8.33
2018-05-16T04:04:32.391Z,8.20
2018-05-16T04:06:59.933Z,8.20
2018-05-16T04:09:27.487Z,8.10
2018-05-16T04:11:55.767Z,7.90
2018-05-16T04:14:24.027Z,8.87
2018-05-16T04:16:52.309Z,8.70
2018-05-16T04:19:20.596Z,7.60
2018-05-16T04:21:48.878Z,8.00
2018-05-16T04:24:16.380Z,6.87
2018-05-16T04:26:43.999Z,6.80
2018-05-16T04:29:11.552Z,6.80
2018-05-16T04:31:39.122Z,6.60
2018-05-16T04:34:06.638Z,6.60
2018-05-16T04:36:34.235Z,7.00
2018-05-16T04:39:01.787Z,6.40
2018-05-16T04:41:30.079Z,5.97
2018-05-16T04:43:57.620Z,5.70
2018-05-16T04:46:25.907Z,5.70
2018-05-16T04:48:53.394Z,6.00
2018-05-16T04:51:20.914Z,6.15
2018-05-16T04:53:49.291Z,6.22
2018-05-16T04:56:17.579Z,6.10
2018-05-16T04:58:45.098Z,5.90
2018-05-16T05:01:12.607Z,6.18
2018-05-16T05:03:40.112Z,6.18
2018-05-16T05:06:07.630Z,6.32
2018-05-16T05:08:35.137Z,6.18
2018-05-16T05:11:03.431Z,5.70
2018-05-16T05:13:31.693Z,5.45
2018-05-16T05:15:59.970Z,5.50
2018-05-16T05:18:28.393Z,5.45
2018-05-16T05:20:55.821Z,6.22
2018-05-16T05:23:24.202Z,5.70
2018-05-16T05:25:52.455Z,5.72
2018-05-16T05:28:20.031Z,5.97
2018-05-16T05:30:48.313Z,5.57
2018-05-16T05:33:15.830Z,5.90
2018-05-16T05:35:43.319Z,5.85
2018-05-16T05:38:11.614Z,5.93
2018-05-16T05:40:39.120Z,5.80
2018-05-16T05:43:06.644Z,5.65
2018-05-16T05:45:34.178Z,6.50
2018-05-16T05:48:02.560Z,6.35
2018-05-16T05:50:30.931Z,5.90
2018-05-16T05:52:59.211Z,6.37
2018-05-16T05:55:27.592Z,6.35
2018-05-16T05:57:55.875Z,6.00
2018-05-16T06:00:23.398Z,6.43
2018-05-16T06:02:50.978Z,6.20
2018-05-16T06:05:19.274Z,6.80
2018-05-16T06:07:46.782Z,6.30
2018-05-16T06:10:15.099Z,6.57
2018-05-16T06:12:42.674Z,6.05
2018-05-16T06:15:10.202Z,6.97
2018-05-16T06:17:38.467Z,6.00
2018-05-16T06:20:06.050Z,6.60
2018-05-16T06:22:34.317Z,6.40
2018-05-16T06:25:02.608Z,6.37
2018-05-16T06:27:30.117Z,6.32
2018-05-16T06:29:57.635Z,6.43
2018-05-16T06:32:26.004Z,7.00
2018-05-16T06:34:53.503Z,7.35
2018-05-16T06:37:21.015Z,7.10
2018-05-16T06:39:48.566Z,8.25
2018-05-16T06:42:16.840Z,6.62
2018-05-16T06:44:44.408Z,7.30
2018-05-16T06:47:11.932Z,8.40
2018-05-16T06:49:39.539Z,6.70
2018-05-16T06:52:07.042Z,7.28
2018-05-16T06:54:34.555Z,7.00
2018-05-16T06:57:02.048Z,6.47
2018-05-16T06:59:29.569Z,6.70
2018-05-16T07:01:57.058Z,6.80
2018-05-16T07:04:24.679Z,7.00
2018-05-16T07:06:52.952Z,6.50
2018-05-16T07:09:21.334Z,6.80
2018-05-16T07:11:48.909Z,6.37
2018-05-16T07:14:16.445Z,6.50
2018-05-16T07:16:44.714Z,7.00
2018-05-16T07:19:12.978Z,7.00
2018-05-16T07:21:40.498Z,7.03
2018-05-16T07:24:08.115Z,7.05
2018-05-16T07:26:36.382Z,7.68
2018-05-16T07:29:04.695Z,7.25
2018-05-16T07:31:32.191Z,7.87
2018-05-16T07:33:59.682Z,7.70
2018-05-16T07:36:27.967Z,8.10
2018-05-16T07:38:56.223Z,7.57
2018-05-16T07:41:23.747Z,7.80
2018-05-16T07:43:51.239Z,8.07
2018-05-16T07:46:31.619Z,8.00
2018-05-16T07:48:59.876Z,7.70
2018-05-16T07:51:28.159Z,8.77
2018-05-16T07:53:56.421Z,8.53
2018-05-16T07:56:23.918Z,8.60
2018-05-16T07:58:51.467Z,8.60
2018-05-16T08:01:19.040Z,8.55
2018-05-16T08:03:46.530Z,8.90
2018-05-16T08:06:14.047Z,8.30
2018-05-16T08:08:41.599Z,8.83
2018-05-16T08:11:09.167Z,8.63
2018-05-16T08:13:36.674Z,10.07
2018-05-16T08:16:04.977Z,9.73
2018-05-16T08:18:33.261Z,9.40
2018-05-16T08:21:01.550Z,10.40
2018-05-16T08:23:29.058Z,10.30
2018-05-16T08:25:56.571Z,10.63
2018-05-16T08:28:24.119Z,9.32
2018-05-16T08:30:51.678Z,9.77
2018-05-16T08:33:19.199Z,9.77
2018-05-16T08:35:46.791Z,8.80
2018-05-16T08:38:15.174Z,10.15
2018-05-16T08:40:42.690Z,10.00
2018-05-16T08:43:10.289Z,9.10
2018-05-16T08:45:38.569Z,9.60
2018-05-16T08:48:06.080Z,10.27
2018-05-16T08:50:33.620Z,10.35
2018-05-16T08:53:01.141Z,10.23
2018-05-16T08:55:29.414Z,10.90
2018-05-16T08:57:57.708Z,10.77
2018-05-16T09:00:25.257Z,10.73
2018-05-16T09:02:53.541Z,11.02
2018-05-16T09:05:21.030Z,10.65
2018-05-16T09:07:48.663Z,10.20
2018-05-16T09:10:16.320Z,10.87
2018-05-16T09:12:43.859Z,9.95
2018-05-16T09:15:12.130Z,10.18
2018-05-16T09:17:40.422Z,9.75
2018-05-16T09:20:07.931Z,9.80
2018-05-16T09:22:35.538Z,9.25
2018-05-16T09:25:03.808Z,9.80
2018-05-16T09:27:32.193Z,9.75
2018-05-16T09:30:00.456Z,9.90
2018-05-16T09:32:28.748Z,9.90
2018-05-16T09:34:57.038Z,10.52
2018-05-16T09:37:24.563Z,9.48
2018-05-16T09:39:52.823Z,9.15
2018-05-16T09:42:20.343Z,9.93
2018-05-16T09:44:47.870Z,10.30
2018-05-16T09:47:16.158Z,11.25
2018-05-16T09:49:43.680Z,10.30
2018-05-16T09:52:11.283Z,11.50
2018-05-16T09:54:38.822Z,9.90
2018-05-16T09:57:07.120Z,9.38
2018-05-16T09:59:34.683Z,8.52
2018-05-16T10:02:02.204Z,9.50
2018-05-16T10:04:30.477Z,10.30
2018-05-16T10:06:57.994Z,10.70
2018-05-16T10:09:25.491Z,11.00
2018-05-16T10:11:52.998Z,11.43
2018-05-16T10:14:20.525Z,11.50
2018-05-16T10:16:48.792Z,12.63
2018-05-16T10:19:17.067Z,13.30
2018-05-16T10:21:45.363Z,12.20
2018-05-16T10:24:12.893Z,12.63
2018-05-16T10:26:40.388Z,12.40
2018-05-16T10:29:07.915Z,11.95
2018-05-16T10:31:36.216Z,12.70
2018-05-16T10:34:03.738Z,11.80
2018-05-16T10:36:32.055Z,12.10
2018-05-16T10:38:59.558Z,12.93
2018-05-16T10:41:27.104Z,12.85
2018-05-16T10:43:54.706Z,13.02
2018-05-16T10:46:22.968Z,12.90
2018-05-16T10:48:50.483Z,13.77
2018-05-16T10:51:18.022Z,16.83
2018-05-16T10:53:45.576Z,24.77
2018-05-16T10:56:13.834Z,17.00
2018-05-16T10:58:42.106Z,15.40
2018-05-16T11:01:09.618Z,14.98
2018-05-16T11:03:37.143Z,14.40
2018-05-16T11:06:05.434Z,13.30
2018-05-16T11:08:32.995Z,13.40
2018-05-16T11:11:00.516Z,13.23
2018-05-16T11:13:28.103Z,13.90
2018-05-16T11:15:55.616Z,13.90
2018-05-16T11:18:23.222Z,17.65
2018-05-16T11:20:50.734Z,14.18
2018-05-16T11:23:18.252Z,14.00
2018-05-16T11:25:45.790Z,14.07
2018-05-16T11:28:13.347Z,15.00
2018-05-16T11:30:41.603Z,14.68
2018-05-16T11:33:09.194Z,15.40
2018-05-16T11:35:36.739Z,15.70
2018-05-16T11:38:04.328Z,16.52
2018-05-16T11:40:31.886Z,15.90
2018-05-16T11:42:59.403Z,17.25
2018-05-16T11:45:26.973Z,16.55
2018-05-16T11:47:55.236Z,15.80
2018-05-16T11:50:23.523Z,15.70
2018-05-16T11:52:51.836Z,15.70
2018-05-16T11:55:19.336Z,16.45
2018-05-16T11:57:46.860Z,15.43
2018-05-16T12:00:14.388Z,16.73
2018-05-16T12:02:42.705Z,16.37
2018-05-16T12:05:10.229Z,15.93
2018-05-16T12:07:37.740Z,17.25
2018-05-16T12:10:05.245Z,17.45
2018-05-16T12:12:32.767Z,18.10
2018-05-16T12:15:00.485Z,19.00
2018-05-16T12:17:27.931Z,15.50
2018-05-16T12:19:55.556Z,15.45
2018-05-16T12:22:23.823Z,19.58
2018-05-16T12:24:51.318Z,15.52
2018-05-16T12:27:18.839Z,15.60
2018-05-16T12:29:46.350Z,15.30
2018-05-16T12:32:13.869Z,15.60
2018-05-16T12:34:42.255Z,15.85
2018-05-16T12:37:10.518Z,18.87
2018-05-16T12:39:38.106Z,17.90
2018-05-16T12:42:05.631Z,16.60
2018-05-16T12:44:33.265Z,16.15
2018-05-16T12:47:00.782Z,15.60
2018-05-16T12:49:28.312Z,16.13
2018-05-16T12:51:55.898Z,16.53
2018-05-16T12:54:23.471Z,16.08
2018-05-16T12:56:50.988Z,15.80
2018-05-16T12:59:18.571Z,15.65
2018-05-16T13:01:46.868Z,14.83
2018-05-16T13:04:14.387Z,16.80
2018-05-16T13:06:42.649Z,16.23
2018-05-16T13:09:10.251Z,16.40
2018-05-16T13:11:37.815Z,21.98
2018-05-16T13:14:05.371Z,14.68
2018-05-16T13:16:32.919Z,13.23
2018-05-16T13:19:01.202Z,13.60
2018-05-16T13:21:28.738Z,13.70
2018-05-16T13:23:56.246Z,14.90
2018-05-16T13:26:23.746Z,15.23
2018-05-16T13:28:52.046Z,15.10
2018-05-16T13:31:19.619Z,16.00
2018-05-16T13:33:47.171Z,13.68
2018-05-16T13:36:14.729Z,12.37
2018-05-16T13:38:42.226Z,14.03
2018-05-16T13:41:09.856Z,12.77
2018-05-16T13:43:37.346Z,13.65
2018-05-16T13:46:04.856Z,13.45
2018-05-16T13:48:32.362Z,14.10
2018-05-16T13:50:59.869Z,18.97
2018-05-16T13:53:28.161Z,12.55
2018-05-16T13:55:55.670Z,13.87
2018-05-16T13:58:24.686Z,10.98
2018-05-16T14:00:53.091Z,10.20
2018-05-16T14:03:20.622Z,9.20
2018-05-16T14:05:48.890Z,9.27
2018-05-16T14:08:16.379Z,8.20
2018-05-16T14:10:43.935Z,8.07
2018-05-16T14:13:12.187Z,9.23
2018-05-16T14:15:40.474Z,8.70
2018-05-16T14:18:08.750Z,8.70
2018-05-16T14:20:37.011Z,9.80
2018-05-16T14:23:04.522Z,10.30
2018-05-16T14:25:32.010Z,9.68
2018-05-16T14:27:59.538Z,10.30
2018-05-16T14:30:27.075Z,9.60
2018-05-16T14:32:54.604Z,10.60
2018-05-16T14:35:22.117Z,10.85
2018-05-16T14:37:49.618Z,11.60
2018-05-16T14:40:17.203Z,12.20
2018-05-16T14:42:45.490Z,12.10
2018-05-16T14:45:13.002Z,12.27
2018-05-16T14:47:40.599Z,12.98
2018-05-16T14:50:08.886Z,12.75
2018-05-16T14:52:36.385Z,11.80
2018-05-16T14:55:03.922Z,12.85
2018-05-16T14:57:31.431Z,12.05
2018-05-16T14:59:59.733Z,12.82
2018-05-16T15:02:27.286Z,11.90
2018-05-16T15:04:54.843Z,15.45
2018-05-16T15:07:23.140Z,12.27
2018-05-16T15:09:50.655Z,12.20
2018-05-16T15:12:18.947Z,11.73
2018-05-16T15:14:47.358Z,12.32
2018-05-16T15:17:14.918Z,12.77
2018-05-16T15:19:42.416Z,12.55
2018-05-16T15:22:09.924Z,12.97
2018-05-16T15:24:37.422Z,12.23
2018-05-16T15:27:04.942Z,12.98
2018-05-16T15:29:32.447Z,13.05
2018-05-16T15:31:59.951Z,15.10
2018-05-16T15:35:17.263Z,15.23
2018-05-16T15:37:45.549Z,15.30
2018-05-16T15:40:13.110Z,13.50
2018-05-16T15:42:40.615Z,13.20
2018-05-16T15:45:08.114Z,13.18
2018-05-16T15:47:36.383Z,12.90
2018-05-16T15:50:04.666Z,11.50
2018-05-16T15:52:32.959Z,11.15
2018-05-16T15:55:00.468Z,12.30
2018-05-16T15:57:27.978Z,16.27
2018-05-16T15:59:55.487Z,11.70
2018-05-16T16:02:22.991Z,14.87
2018-05-16T16:04:50.951Z,14.25
2018-05-16T16:07:18.510Z,13.93
2018-05-16T16:09:46.780Z,17.80
2018-05-16T16:12:15.069Z,17.70
2018-05-16T16:14:42.618Z,17.80
2018-05-16T16:17:10.139Z,18.98
2018-05-16T16:19:37.735Z,22.37
2018-05-16T16:22:06.002Z,24.55
2018-05-16T16:24:34.274Z,27.40
2018-05-16T16:27:02.552Z,18.55
2018-05-16T16:29:30.818Z,21.75
2018-05-16T16:31:58.331Z,21.12
2018-05-16T16:34:25.870Z,22.33
2018-05-16T16:36:53.428Z,22.50
2018-05-16T16:39:20.931Z,22.48
2018-05-16T16:41:48.537Z,25.60
2018-05-16T16:44:16.799Z,24.50
2018-05-16T16:46:45.087Z,22.42
2018-05-16T16:49:12.669Z,24.30
2018-05-16T16:51:40.164Z,26.60
2018-05-16T16:54:07.685Z,25.40
2018-05-16T16:56:35.192Z,23.90
2018-05-16T16:59:03.479Z,23.50
2018-05-16T17:01:31.064Z,20.90
2018-05-16T17:03:58.626Z,20.10
2018-05-16T17:06:26.126Z,18.50
2018-05-16T17:08:53.647Z,15.85
2018-05-16T17:11:21.155Z,14.80
2018-05-16T17:13:48.655Z,14.63
2018-05-16T17:16:16.165Z,12.43
2018-05-16T17:18:43.782Z,9.88
2018-05-16T17:21:11.394Z,9.63
2018-05-16T17:23:38.890Z,9.40
2018-05-16T17:26:06.399Z,8.43
2018-05-16T17:28:34.002Z,8.20
2018-05-16T17:31:02.291Z,9.10
2018-05-16T17:33:29.799Z,9.23
2018-05-16T17:35:57.395Z,9.00
2018-05-16T17:38:25.795Z,9.05
2018-05-16T17:40:53.290Z,9.45
2018-05-16T17:43:20.799Z,9.63
2018-05-16T17:45:48.318Z,9.70
2018-05-16T17:48:15.822Z,9.40
2018-05-16T17:50:43.335Z,10.32
2018-05-16T17:53:10.939Z,10.40
2018-05-16T17:55:38.497Z,10.07
2018-05-16T17:58:06.055Z,11.10
2018-05-16T18:00:33.606Z,9.20
2018-05-16T18:03:01.086Z,11.68
2018-05-16T18:05:28.618Z,12.00
2018-05-16T18:07:56.895Z,13.40
2018-05-16T18:10:25.178Z,13.00
2018-05-16T18:16:08.314Z,13.25
2018-05-16T18:18:36.584Z,12.93
2018-05-16T18:21:04.109Z,11.63
2018-05-16T18:23:31.618Z,11.25
2018-05-16T18:25:59.114Z,9.68
2018-05-16T18:28:26.622Z,10.55
2018-05-16T18:30:54.879Z,9.43
2018-05-16T18:33:22.472Z,9.90
2018-05-16T18:35:49.987Z,9.57
2018-05-16T18:38:18.999Z,10.50
2018-05-16T18:40:47.279Z,10.00
2018-05-16T18:43:15.551Z,11.18
2018-05-16T18:45:43.847Z,11.25
2018-05-16T18:48:11.355Z,11.20
2018-05-16T18:50:38.865Z,11.32
2018-05-16T18:53:06.376Z,12.00
2018-05-16T18:55:33.887Z,9.88
2018-05-16T18:58:02.163Z,10.30
2018-05-16T19:00:29.726Z,9.60
2018-05-16T19:02:57.218Z,9.30
2018-05-16T19:05:24.759Z,8.88
2018-05-16T19:07:52.247Z,9.10
2018-05-16T19:10:19.744Z,8.00
2018-05-16T19:12:47.264Z,8.45
2018-05-16T19:15:14.873Z,8.75
2018-05-16T19:17:42.403Z,10.87
2018-05-16T19:20:10.765Z,9.43
2018-05-16T19:22:38.264Z,8.80
2018-05-16T19:25:05.819Z,8.82
2018-05-16T19:27:33.490Z,9.60
2018-05-16T19:32:52.555Z,9.40
2018-05-16T19:35:20.059Z,9.55
2018-05-16T19:37:47.569Z,9.80
2018-05-16T19:40:15.838Z,10.07
2018-05-16T19:42:44.122Z,9.90
2018-05-16T19:45:12.382Z,10.43
2018-05-16T19:47:40.665Z,8.60
2018-05-16T19:50:08.923Z,10.63
2018-05-16T19:52:36.451Z,10.18
2018-05-16T19:55:03.944Z,9.85
2018-05-16T19:57:31.463Z,9.70
2018-05-16T19:59:58.999Z,8.82
2018-05-16T20:02:26.511Z,8.38
2018-05-16T20:04:54.002Z,8.55
2018-05-16T20:07:22.274Z,8.40
2018-05-16T20:09:50.547Z,9.80
2018-05-16T20:12:18.823Z,9.40
2018-05-16T20:14:47.123Z,9.75
2018-05-16T20:17:15.407Z,9.50
2018-05-16T20:19:42.906Z,9.40
2018-05-16T20:22:10.416Z,9.57
2018-05-16T20:24:37.931Z,9.13
2018-05-16T20:27:05.532Z,10.40
2018-05-16T20:29:33.053Z,10.30
2018-05-16T20:32:00.543Z,10.20
2018-05-16T20:34:28.072Z,10.73
2018-05-16T20:36:56.374Z,11.18
2018-05-16T20:39:23.894Z,10.85
2018-05-16T20:41:51.387Z,11.77
2018-05-16T20:44:18.915Z,11.68
2018-05-16T20:46:46.420Z,12.20
2018-05-16T20:49:13.943Z,12.10
2018-05-16T20:51:42.239Z,11.00
2018-05-16T20:54:09.756Z,12.57
2018-05-16T20:56:37.280Z,11.20
2018-05-16T20:59:04.786Z,11.00
2018-05-16T21:01:32.318Z,12.40
2018-05-16T21:03:59.811Z,12.60
2018-05-16T21:06:28.071Z,11.97
2018-05-16T21:08:55.663Z,11.17
2018-05-16T21:11:23.228Z,10.23
2018-05-16T21:13:50.746Z,10.75
2018-05-16T21:16:18.359Z,10.18
2018-05-16T21:18:45.857Z,11.30
2018-05-16T21:21:13.366Z,9.50
2018-05-16T21:23:40.894Z,8.70
2018-05-16T21:26:08.388Z,8.63
2018-05-16T21:28:35.927Z,7.40
2018-05-16T21:31:04.183Z,8.30
2018-05-16T21:33:31.706Z,9.25
2018-05-16T21:35:59.202Z,9.85
2018-05-16T21:38:26.782Z,9.20
2018-05-16T21:40:55.046Z,9.30
2018-05-16T21:43:23.332Z,9.02
2018-05-16T21:45:51.620Z,9.00
2018-05-16T21:48:19.128Z,8.40
2018-05-16T21:50:46.658Z,8.20
2018-05-16T21:53:14.152Z,8.07
2018-05-16T21:55:41.755Z,8.47
2018-05-16T21:58:09.275Z,7.75
2018-05-16T22:00:36.775Z,7.20
2018-05-16T22:03:04.295Z,8.30
2018-05-16T22:05:31.800Z,8.27
2018-05-16T22:07:59.305Z,7.60
2018-05-16T22:10:26.812Z,8.13
2018-05-16T22:12:54.320Z,7.78
2018-05-16T22:15:21.825Z,8.20
2018-05-16T22:17:49.315Z,8.50
2018-05-16T22:20:16.810Z,7.70
2018-05-16T22:22:45.095Z,8.07
2018-05-16T22:25:13.358Z,7.80
2018-05-16T22:27:40.871Z,8.30
2018-05-16T22:30:07.883Z,8.30
2018-05-16T22:32:41.918Z,6.60
2018-05-16T22:35:15.005Z,6.40
2018-05-16T22:37:48.299Z,6.22
2018-05-16T22:40:21.463Z,5.20
2018-05-16T22:42:48.467Z,5.13
2018-05-16T22:45:31.777Z,5.80
2018-05-16T22:47:59.271Z,5.57
2018-05-16T22:50:26.779Z,5.53
2018-05-16T22:52:54.298Z,5.12
2018-05-16T22:55:21.786Z,4.70
2018-05-16T22:57:49.293Z,5.10
2018-05-16T23:00:18.620Z,4.75
2018-05-16T23:02:46.899Z,5.30
2018-05-16T23:05:15.174Z,5.20
2018-05-16T23:07:43.448Z,5.37
2018-05-16T23:10:11.740Z,4.80
2018-05-16T23:12:39.278Z,4.70
2018-05-16T23:15:07.547Z,5.15
2018-05-16T23:17:35.042Z,4.78
2018-05-16T23:20:02.551Z,4.43
2018-05-16T23:22:30.051Z,4.68
2018-05-16T23:24:57.557Z,5.00
2018-05-16T23:27:25.076Z,4.62
2018-05-16T23:29:52.584Z,4.60
2018-05-16T23:32:20.100Z,5.75
2018-05-16T23:34:47.602Z,4.45
2018-05-16T23:37:15.107Z,4.40
2018-05-16T23:39:42.615Z,4.30
2018-05-16T23:42:10.120Z,4.53
2018-05-16T23:44:37.620Z,4.20
2018-05-16T23:47:05.106Z,5.10
2018-05-16T23:49:32.615Z,5.47
2018-05-16T23:52:00.128Z,4.70
2018-05-16T23:54:28.426Z,5.18
2018-05-16T23:56:55.940Z,5.32
2018-05-16T23:59:23.442Z,4.97
